Time;durP1;ratioP1;P1;durP2;ratioP2;P2;SDS_P1;SDS_P2;PMS_P1;PMS_P2;Temp;Humidity;BMP_temperature;BMP_pressure;BME280_temperature;BME280_humidity;BME280_pressure;Samples;Min_cycle;Max_cycle;Signal;HPM_P1;HPM_P2
2022/06/06 00:01:42;;;;;;;2.35;1.58;;;;;;;22.65;38.60;99484.88;4474227;32;32717;-88
2022/06/06 00:04:11;;;;;;;2.45;1.58;;;;;;;22.86;38.26;99487.84;4469440;32;33949;-88
2022/06/06 00:06:41;;;;;;;2.03;1.20;;;;;;;22.68;38.76;99484.66;4483495;32;34867;-88
2022/06/06 00:09:14;;;;;;;1.98;1.35;;;;;;;22.78;38.47;99494.53;4467645;32;34586;-88
2022/06/06 00:11:44;;;;;;;1.58;1.08;;;;;;;22.76;38.36;99499.06;4463419;32;33469;-88
2022/06/06 00:14:17;;;;;;;1.92;1.00;;;;;;;22.98;38.57;99500.31;4462199;32;33974;-88
2022/06/06 00:16:46;;;;;;;1.25;1.05;;;;;;;22.92;38.22;99496.22;4464386;32;34664;-88
2022/06/06 00:19:15;;;;;;;1.62;1.12;;;;;;;22.66;38.35;99491.84;4480416;32;33881;-88
2022/06/06 00:21:44;;;;;;;1.77;1.00;;;;;;;22.73;38.71;99490.47;4479003;32;33741;-88
2022/06/06 00:24:15;;;;;;;2.30;1.12;;;;;;;22.63;38.54;99487.59;4479267;32;34593;-88
2022/06/06 00:26:44;;;;;;;1.73;1.12;;;;;;;22.53;39.15;99490.00;4478153;32;33154;-88
2022/06/06 00:29:15;;;;;;;1.45;1.00;;;;;;;22.72;38.95;99489.66;4474488;32;34255;-88
2022/06/06 00:34:52;;;;;;;1.73;1.10;;;;;;;22.71;38.79;99495.03;4477031;32;33801;-88
2022/06/06 00:37:24;;;;;;;1.87;1.30;;;;;;;22.75;38.57;99497.37;4467637;32;34011;-88
2022/06/06 00:39:56;;;;;;;1.73;1.12;;;;;;;22.30;39.44;99506.50;4466025;32;34558;-88
2022/06/06 00:42:27;;;;;;;1.62;1.27;;;;;;;22.45;39.33;99516.13;4478238;32;34041;-88
2022/06/06 00:45:26;;;;;;;1.67;1.17;;;;;;;22.61;39.41;99523.03;4478917;32;33782;-88
2022/06/06 00:48:00;;;;;;;2.17;1.42;;;;;;;22.30;39.99;99525.00;4473167;32;33637;-88
2022/06/06 00:50:34;;;;;;;2.15;1.37;;;;;;;22.33;40.10;99527.47;4469995;32;33797;-88
2022/06/06 00:53:03;;;;;;;2.47;1.42;;;;;;;22.28;40.17;99530.41;4467655;32;33381;-88
2022/06/06 00:55:39;;;;;;;1.55;0.93;;;;;;;22.55;39.84;99532.22;4478006;32;33045;-88
2022/06/06 00:58:11;;;;;;;2.55;1.23;;;;;;;22.63;39.61;99537.00;4478358;32;34670;-88
2022/06/06 01:00:40;;;;;;;0.82;0.82;;;;;;;22.76;39.31;99551.97;4477960;32;34103;-88
2022/06/06 01:03:14;;;;;;;1.35;1.00;;;;;;;22.82;39.32;99574.50;4478210;32;33399;-88
2022/06/06 01:05:45;;;;;;;2.03;1.15;;;;;;;22.55;40.24;99571.88;4476845;32;33563;-88
2022/06/06 01:08:15;;;;;;;3.10;1.37;;;;;;;22.44;40.47;99577.00;4467659;32;34350;-88
2022/06/06 01:10:46;;;;;;;2.65;1.60;;;;;;;22.48;40.50;99579.34;4462485;32;33915;-88
2022/06/06 01:13:17;;;;;;;2.57;1.57;;;;;;;22.35;41.02;99565.25;4462613;32;33311;-88
2022/06/06 01:16:00;;;;;;;1.30;1.10;;;;;;;22.31;40.64;99558.44;4471873;32;33811;-88
2022/06/06 01:18:35;;;;;;;2.40;1.33;;;;;;;22.31;40.77;99561.09;4464740;32;33736;-88
2022/06/06 01:21:28;;;;;;;1.55;1.23;;;;;;;22.12;41.00;99575.41;4462848;32;33638;-88
2022/06/06 01:24:08;;;;;;;3.35;1.62;;;;;;;21.73;42.22;99576.94;4462957;32;33345;-88
2022/06/06 01:26:55;;;;;;;1.27;1.15;;;;;;;21.87;42.05;99589.31;4470445;32;34506;-88
2022/06/06 01:29:27;;;;;;;1.80;1.12;;;;;;;21.98;41.93;99571.94;4467632;32;34652;-88
2022/06/06 01:32:00;;;;;;;2.75;1.90;;;;;;;22.03;42.23;99573.34;4468669;32;34271;-88
2022/06/06 01:34:32;;;;;;;2.30;1.20;;;;;;;22.03;42.17;99578.62;4480793;32;34118;-88
2022/06/06 01:37:02;;;;;;;2.78;1.30;;;;;;;22.26;42.21;99584.31;4483006;32;34566;-88
2022/06/06 01:39:32;;;;;;;2.08;1.30;;;;;;;22.12;42.08;99593.91;4480377;32;34741;-88
2022/06/06 01:42:07;;;;;;;1.47;1.20;;;;;;;22.12;41.55;99595.72;4485021;32;33435;-88
2022/06/06 01:44:42;;;;;;;1.73;1.37;;;;;;;21.94;42.21;99603.84;4464757;32;33824;-88
2022/06/06 01:47:13;;;;;;;1.87;1.40;;;;;;;21.97;42.01;99615.16;4464817;32;33493;-88
2022/06/06 01:49:43;;;;;;;2.53;1.40;;;;;;;22.26;41.13;99623.97;4473447;32;34725;-88
2022/06/06 01:52:15;;;;;;;2.10;1.20;;;;;;;22.16;41.56;99640.34;4480635;31;34314;-88
2022/06/06 01:54:44;;;;;;;2.15;1.45;;;;;;;22.71;40.15;99653.69;4481011;32;33977;-87
2022/06/06 01:57:16;;;;;;;2.17;1.48;;;;;;;22.63;40.74;99674.50;4469604;32;35139;-88
2022/06/06 01:59:46;;;;;;;1.95;1.30;;;;;;;22.70;40.95;99695.16;4464355;32;33338;-88
2022/06/06 02:02:16;;;;;;;2.65;1.60;;;;;;;22.78;41.22;99718.47;4464452;32;35514;-88
2022/06/06 02:04:45;;;;;;;2.78;1.40;;;;;;;22.70;41.31;99728.69;4475280;32;33145;-88
2022/06/06 02:07:14;;;;;;;2.60;1.48;;;;;;;22.75;41.85;99732.75;4480502;32;33765;-88
2022/06/06 02:09:42;;;;;;;2.08;1.20;;;;;;;22.63;41.67;99720.28;4480472;32;33600;-88
2022/06/06 02:12:12;;;;;;;2.47;1.30;;;;;;;22.71;41.41;99717.16;4464134;32;33810;-88
2022/06/06 02:14:41;;;;;;;1.30;1.17;;;;;;;22.75;41.93;99702.81;4464176;32;33377;-88
2022/06/06 02:17:11;;;;;;;2.45;1.40;;;;;;;22.86;42.12;99699.47;4463602;32;33597;-88
2022/06/06 02:19:42;;;;;;;1.48;1.25;;;;;;;23.00;42.33;99680.94;4463017;32;32368;-88
2022/06/06 02:22:12;;;;;;;1.73;1.42;;;;;;;22.76;43.35;99680.69;4465576;32;33975;-89
2022/06/06 02:24:41;;;;;;;1.60;1.25;;;;;;;22.76;43.05;99684.22;4484459;32;32943;-88
2022/06/06 02:27:09;;;;;;;1.52;1.20;;;;;;;22.87;43.32;99678.22;4476717;32;33593;-88
2022/06/06 02:29:39;;;;;;;2.42;1.30;;;;;;;23.02;41.47;99679.03;4464218;32;33984;-88
2022/06/06 02:32:09;;;;;;;3.42;2.12;;;;;;;22.75;42.87;99669.25;4464430;32;33703;-88
2022/06/06 02:34:39;;;;;;;2.37;1.62;;;;;;;22.84;43.61;99680.22;4464297;32;33731;-88
2022/06/06 02:37:08;;;;;;;2.70;1.52;;;;;;;22.85;42.06;99682.75;4469406;32;33097;-89
2022/06/06 02:39:37;;;;;;;1.85;1.20;;;;;;;22.65;42.78;99685.84;4465545;32;34042;-88
2022/06/06 02:42:06;;;;;;;2.15;1.48;;;;;;;22.55;43.23;99681.13;4479974;32;33785;-88
2022/06/06 02:44:38;;;;;;;2.85;1.70;;;;;;;22.57;42.97;99686.31;4480200;32;33998;-88
2022/06/06 02:47:07;;;;;;;1.48;1.00;;;;;;;22.45;42.97;99687.09;4478455;32;33034;-88
2022/06/06 02:49:36;;;;;;;2.22;1.40;;;;;;;22.46;42.42;99681.69;4484945;32;34694;-88
2022/06/06 02:52:07;;;;;;;2.50;1.60;;;;;;;22.48;42.69;99682.44;4480065;31;33758;-88
2022/06/06 02:54:36;;;;;;;4.47;2.17;;;;;;;22.49;42.43;99683.28;4479990;32;33357;-88
2022/06/06 02:57:06;;;;;;;2.37;1.55;;;;;;;22.11;42.80;99676.78;4475704;32;33693;-88
2022/06/06 02:59:36;;;;;;;2.35;1.90;;;;;;;22.17;42.65;99664.97;4480233;32;33956;-88
2022/06/06 03:02:05;;;;;;;3.87;1.58;;;;;;;21.94;42.97;99663.75;4480252;32;35713;-88
2022/06/06 03:04:34;;;;;;;1.75;1.23;;;;;;;22.01;43.19;99673.00;4484542;32;33992;-88
2022/06/06 03:07:18;;;;;;;1.52;1.30;;;;;;;22.17;44.37;99678.19;4479999;32;33776;-88
2022/06/06 03:09:55;;;;;;;2.22;1.40;;;;;;;22.18;44.35;99679.91;4479705;32;34643;-88
2022/06/06 03:12:45;;;;;;;2.28;1.50;;;;;;;22.22;44.51;99673.50;4480218;32;34464;-88
2022/06/06 03:15:30;;;;;;;1.90;1.25;;;;;;;22.25;44.34;99669.81;4479929;32;34072;-88
2022/06/06 03:21:04;;;;;;;1.35;1.20;;;;;;;22.29;44.76;99664.25;4479956;32;33995;-88
2022/06/06 03:23:44;;;;;;;2.70;1.40;;;;;;;22.34;44.69;99658.66;4479764;32;33370;-88
2022/06/06 03:26:20;;;;;;;2.95;1.52;;;;;;;22.45;45.91;99664.13;4473882;32;33341;-88
2022/06/06 03:29:07;;;;;;;1.95;1.40;;;;;;;22.40;45.56;99652.13;4464330;32;34533;-88
2022/06/06 03:31:54;;;;;;;1.50;1.20;;;;;;;22.49;45.24;99649.75;4472350;32;34679;-88
2022/06/06 03:34:28;;;;;;;2.05;1.27;;;;;;;22.35;46.29;99652.47;4479445;32;33202;-88
2022/06/06 03:37:03;;;;;;;1.33;1.23;;;;;;;22.41;45.05;99643.28;4479965;32;33412;-88
2022/06/06 03:39:37;;;;;;;1.27;1.08;;;;;;;22.21;45.48;99641.91;4479659;32;33939;-88
2022/06/06 03:42:12;;;;;;;2.58;1.60;;;;;;;22.46;44.40;99628.81;4479401;32;34225;-88
2022/06/06 03:44:52;;;;;;;2.75;1.67;;;;;;;22.44;44.36;99629.88;4469106;32;33923;-88
2022/06/06 03:47:27;;;;;;;3.47;1.80;;;;;;;22.21;45.04;99623.41;4465193;32;34106;-88
2022/06/06 03:50:03;;;;;;;3.08;1.70;;;;;;;22.36;44.38;99611.84;4464104;32;33868;-88
2022/06/06 03:52:37;;;;;;;3.75;1.98;;;;;;;22.37;44.86;99610.91;4462628;32;33778;-88
2022/06/06 03:55:15;;;;;;;2.60;1.65;;;;;;;22.25;45.22;99603.75;4466242;32;34406;-88
2022/06/06 03:57:45;;;;;;;3.22;1.90;;;;;;;22.38;44.47;99594.09;4479283;32;33500;-88
2022/06/06 04:00:15;;;;;;;3.10;1.65;;;;;;;22.10;45.29;99595.78;4484055;32;34387;-88
2022/06/06 04:02:46;;;;;;;3.20;1.48;;;;;;;22.26;44.18;99600.16;4483686;32;33408;-88
2022/06/06 04:05:17;;;;;;;1.42;1.27;;;;;;;22.41;43.75;99590.41;4479012;32;33897;-88
2022/06/06 04:07:46;;;;;;;3.65;1.60;;;;;;;22.45;45.09;99598.06;4479434;32;33372;-88
2022/06/06 04:10:17;;;;;;;2.28;1.40;;;;;;;22.36;44.25;99599.47;4463758;32;35856;-88
2022/06/06 04:12:57;;;;;;;2.90;1.70;;;;;;;22.35;44.78;99611.00;4463781;32;34168;-88
2022/06/06 04:15:31;;;;;;;2.10;1.48;;;;;;;22.32;46.01;99610.34;4467189;32;32113;-88
2022/06/06 04:18:11;;;;;;;2.42;1.60;;;;;;;21.99;47.21;99621.19;4462549;32;33032;-88
2022/06/06 04:20:50;;;;;;;2.05;1.20;;;;;;;22.16;46.68;99627.13;4463726;32;33870;-88
2022/06/06 04:23:29;;;;;;;2.50;1.60;;;;;;;22.18;46.24;99637.63;4476173;32;34064;-88
2022/06/06 04:26:10;;;;;;;3.08;1.60;;;;;;;22.12;46.21;99633.53;4467869;32;34662;-88
2022/06/06 04:28:52;;;;;;;3.53;1.85;;;;;;;22.01;46.37;99627.22;4463865;32;34158;-88
2022/06/06 04:31:25;;;;;;;1.98;1.65;;;;;;;22.04;45.64;99634.97;4463722;32;33910;-88
2022/06/06 04:34:01;;;;;;;2.05;1.35;;;;;;;21.87;47.77;99646.56;4468228;32;33579;-88
2022/06/06 04:36:34;;;;;;;2.05;1.40;;;;;;;21.84;46.81;99641.44;4468141;32;34453;-88
2022/06/06 04:39:13;;;;;;;3.30;1.67;;;;;;;21.97;46.89;99642.41;4467494;32;32406;-88
2022/06/06 04:41:45;;;;;;;2.05;1.50;;;;;;;22.01;47.29;99648.34;4479077;32;33852;-88
2022/06/06 04:44:20;;;;;;;2.80;1.77;;;;;;;22.14;46.46;99649.31;4466709;32;34784;-88
2022/06/06 04:46:51;;;;;;;3.97;1.90;;;;;;;22.09;46.89;99641.66;4463376;32;33235;-88
2022/06/06 04:49:23;;;;;;;2.42;1.52;;;;;;;22.07;48.04;99659.41;4468050;32;33694;-88
2022/06/06 04:51:52;;;;;;;3.90;1.73;;;;;;;22.13;47.01;99651.13;4467950;32;33448;-89
2022/06/06 04:54:24;;;;;;;3.12;1.87;;;;;;;22.14;47.22;99652.78;4463105;32;34735;-88
2022/06/06 04:56:56;;;;;;;2.75;1.60;;;;;;;22.25;47.28;99656.59;4478822;32;33534;-88
2022/06/06 04:59:26;;;;;;;1.75;1.40;;;;;;;22.38;46.81;99654.91;4478748;32;33218;-88
2022/06/06 05:01:55;;;;;;;2.28;1.48;;;;;;;22.45;47.40;99656.22;4480644;32;33722;-88
2022/06/06 05:04:24;;;;;;;2.67;1.70;;;;;;;22.59;47.22;99660.59;4485023;32;33413;-88
2022/06/06 05:07:17;;;;;;;2.65;1.60;;;;;;;22.58;46.82;99659.75;4480495;32;33242;-88
2022/06/06 05:10:09;;;;;;;3.20;2.22;;;;;;;22.94;46.41;99658.34;4473670;32;33955;-88
2022/06/06 05:12:51;;;;;;;2.95;1.65;;;;;;;23.20;46.12;99661.97;4480739;32;33700;-88
2022/06/06 05:15:29;;;;;;;3.75;1.50;;;;;;;23.49;44.49;99663.66;4480743;32;34068;-88
2022/06/06 05:18:08;;;;;;;4.60;1.60;;;;;;;23.64;44.92;99667.91;4481108;32;33863;-88
2022/06/06 05:21:04;;;;;;;2.12;1.50;;;;;;;24.08;44.26;99673.78;4481255;32;34175;-88
2022/06/06 05:24:02;;;;;;;3.22;1.90;;;;;;;24.06;44.66;99672.06;4480853;32;33584;-88
2022/06/06 05:26:44;;;;;;;2.53;1.27;;;;;;;24.02;45.17;99675.91;4458592;32;34344;-88
2022/06/06 05:29:28;;;;;;;2.10;1.45;;;;;;;24.47;45.18;99686.06;4484564;32;33774;-88
2022/06/06 05:32:28;;;;;;;2.75;1.65;;;;;;;24.06;46.41;99676.53;4469739;32;33054;-88
2022/06/06 05:35:01;;;;;;;4.05;2.17;;;;;;;24.00;47.51;99676.97;4468562;32;34495;-88
2022/06/06 05:37:41;;;;;;;5.25;1.92;;;;;;;24.03;47.58;99677.59;4464663;32;34575;-88
2022/06/06 05:40:29;;;;;;;1.93;1.33;;;;;;;24.13;47.56;99680.44;4464921;32;33754;-88
2022/06/06 05:43:17;;;;;;;3.35;1.67;;;;;;;24.22;47.26;99678.97;4471675;32;32593;-88
2022/06/06 05:45:54;;;;;;;2.67;1.75;;;;;;;24.33;47.16;99678.19;4479356;32;33038;-88
2022/06/06 05:48:33;;;;;;;3.20;1.58;;;;;;;24.22;47.69;99682.47;4480812;32;34308;-88
2022/06/06 05:51:11;;;;;;;3.95;1.73;;;;;;;23.97;48.41;99682.44;4478855;32;33685;-88
2022/06/06 05:54:02;;;;;;;3.65;1.87;;;;;;;24.11;48.00;99678.84;4485369;32;33882;-88
2022/06/06 05:56:55;;;;;;;3.70;1.55;;;;;;;24.12;48.34;99681.41;4485433;32;34101;-88
2022/06/06 05:59:53;;;;;;;3.45;2.15;;;;;;;24.02;48.82;99683.84;4485194;32;34662;-88
2022/06/06 06:02:41;;;;;;;4.90;1.85;;;;;;;23.69;49.82;99681.66;4478274;32;33668;-88
2022/06/06 06:05:16;;;;;;;4.37;2.00;;;;;;;23.54;50.19;99683.56;4476564;32;33238;-88
2022/06/06 06:07:53;;;;;;;6.37;1.58;;;;;;;23.24;51.81;99681.13;4480509;32;33824;-88
2022/06/06 06:10:28;;;;;;;2.47;1.60;;;;;;;23.54;51.01;99686.22;4480260;32;34386;-88
2022/06/06 06:13:17;;;;;;;;;;;;;;;23.61;50.37;99681.34;4480895;32;34275;-88
2022/06/06 06:15:46;;;;;;;2.67;1.80;;;;;;;23.76;48.83;99680.34;4480100;32;33970;-88
2022/06/06 06:18:21;;;;;;;4.50;1.87;;;;;;;24.01;48.14;99684.78;4485306;32;33781;-88
2022/06/06 06:20:53;;;;;;;2.70;1.42;;;;;;;24.18;46.95;99680.97;4484883;32;33945;-87
2022/06/06 06:23:25;;;;;;;2.80;1.50;;;;;;;24.49;45.62;99687.66;4479992;32;33911;-88
2022/06/06 06:25:55;;;;;;;2.72;1.27;;;;;;;24.51;44.73;99692.00;4480097;32;33410;-88
2022/06/06 06:28:28;;;;;;;2.58;1.65;;;;;;;24.60;44.01;99692.19;4483239;32;33876;-88
2022/06/06 06:31:05;;;;;;;3.10;1.47;;;;;;;24.35;45.25;99697.50;4480347;32;34014;-88
2022/06/06 06:33:44;;;;;;;2.22;1.50;;;;;;;24.79;44.46;99701.47;4483688;32;33435;-88
2022/06/06 06:36:27;;;;;;;1.87;1.30;;;;;;;24.82;44.16;99702.13;4483883;32;32517;-88
2022/06/06 06:39:19;;;;;;;2.37;1.48;;;;;;;24.52;44.65;99702.50;4479748;32;33301;-88
2022/06/06 06:41:56;;;;;;;1.80;1.27;;;;;;;24.59;45.52;99703.75;4480208;32;33967;-87
2022/06/06 06:44:30;;;;;;;2.40;1.48;;;;;;;24.79;44.30;99701.47;4480412;32;36101;-87
2022/06/06 06:47:06;;;;;;;2.55;1.40;;;;;;;24.35;45.84;99702.81;4478690;32;33068;-89
2022/06/06 06:49:41;;;;;;;2.80;1.58;;;;;;;24.38;46.45;99698.16;4478298;32;34505;-88
2022/06/06 06:52:27;;;;;;;3.03;1.83;;;;;;;24.67;46.15;99690.81;4477301;32;33864;-88
2022/06/06 06:55:08;;;;;;;2.75;1.40;;;;;;;24.16;46.74;99701.47;4479301;32;34496;-88
2022/06/06 06:57:49;;;;;;;2.15;1.70;;;;;;;24.12;47.23;99692.00;4482747;32;34111;-88
2022/06/06 07:00:20;;;;;;;2.92;1.83;;;;;;;24.40;48.17;99703.31;4477678;32;34191;-88
2022/06/06 07:08:44;;;;;;;2.90;1.60;;;;;;;24.28;44.64;99697.94;4475302;32;33480;-88
2022/06/06 07:11:36;;;;;;;2.15;1.27;;;;;;;24.16;45.30;99692.62;4478722;32;34420;-88
2022/06/06 07:14:10;;;;;;;1.92;1.27;;;;;;;24.34;46.10;99701.13;4478204;32;34778;-88
2022/06/06 07:16:40;;;;;;;2.53;1.60;;;;;;;24.06;42.93;99700.38;4479394;32;33393;-88
2022/06/06 07:19:13;;;;;;;2.70;1.42;;;;;;;24.61;42.39;99698.34;4484450;32;33446;-88
2022/06/06 07:21:45;;;;;;;1.83;1.20;;;;;;;24.73;43.33;99694.81;4474307;32;34068;-88
2022/06/06 07:24:17;;;;;;;3.25;1.95;;;;;;;24.43;43.73;99703.97;4479250;32;33987;-88
2022/06/06 07:26:46;;;;;;;3.80;1.83;;;;;;;25.03;42.44;99697.06;4480178;32;33882;-88
2022/06/06 07:29:17;;;;;;;2.10;1.45;;;;;;;25.11;42.25;99709.78;4478822;32;33435;-89
2022/06/06 07:32:02;;;;;;;2.97;1.73;;;;;;;24.87;40.72;99707.09;4481451;32;33013;-87
2022/06/06 07:34:41;;;;;;;1.48;1.12;;;;;;;24.56;42.25;99711.09;4483177;32;34693;-88
2022/06/06 07:37:21;;;;;;;2.70;1.50;;;;;;;24.74;40.91;99712.41;4477849;32;33812;-87
2022/06/06 07:39:59;;;;;;;2.47;1.75;;;;;;;24.51;41.17;99715.88;4477868;32;33390;-88
2022/06/06 07:42:39;;;;;;;2.17;1.27;;;;;;;24.78;41.00;99708.59;4476369;32;33922;-88
2022/06/06 07:45:25;;;;;;;2.00;1.50;;;;;;;24.31;41.42;99709.28;4464218;32;34797;-87
2022/06/06 07:48:11;;;;;;;2.25;1.37;;;;;;;24.31;41.40;99719.87;4464168;32;34388;-88
2022/06/06 07:50:47;;;;;;;2.75;1.42;;;;;;;24.87;38.97;99717.72;4466346;32;33421;-88
2022/06/06 07:53:26;;;;;;;2.17;1.40;;;;;;;24.64;39.23;99720.19;4482997;32;34728;-88
2022/06/06 07:56:03;;;;;;;2.22;1.50;;;;;;;24.64;39.48;99714.88;4484742;32;33547;-88
2022/06/06 07:58:37;;;;;;;2.72;1.40;;;;;;;25.02;37.05;99716.59;4480767;32;33861;-87
2022/06/06 08:01:10;;;;;;;2.35;1.55;;;;;;;25.19;37.58;99709.22;4479227;32;34379;-87
2022/06/06 08:03:47;;;;;;;2.65;1.40;;;;;;;25.37;36.97;99715.84;4471210;32;280124;-88
2022/06/06 08:06:33;;;;;;;4.68;2.17;;;;;;;25.25;36.88;99714.94;4480515;32;34649;-87
2022/06/06 08:09:15;;;;;;;1.83;1.23;;;;;;;25.09;37.75;99717.84;4472421;31;33495;-88
2022/06/06 08:11:53;;;;;;;3.00;1.60;;;;;;;25.35;37.19;99723.06;4479742;32;34192;-88
2022/06/06 08:14:30;;;;;;;1.52;1.00;;;;;;;25.92;35.90;99722.31;4471481;32;34022;-88
2022/06/06 08:17:03;;;;;;;2.12;1.20;;;;;;;25.68;35.25;99730.31;4473069;32;33905;-88
2022/06/06 08:19:45;;;;;;;2.70;1.67;;;;;;;25.47;34.98;99724.81;4472666;32;33718;-88
2022/06/06 08:22:14;;;;;;;1.65;1.25;;;;;;;25.87;35.62;99732.44;4471785;32;33827;-88
2022/06/06 08:24:48;;;;;;;1.05;0.95;;;;;;;25.71;35.95;99732.75;4478279;32;33949;-88
2022/06/06 08:27:28;;;;;;;2.25;1.25;;;;;;;25.50;36.78;99729.06;4472003;32;34886;-88
2022/06/06 08:29:59;;;;;;;2.33;1.42;;;;;;;26.05;36.42;99718.75;4481604;31;34085;-88
2022/06/06 08:32:29;;;;;;;;;;;;;;;25.94;37.89;99736.34;4473931;32;33412;-88
2022/06/06 08:34:59;;;;;;;3.05;1.55;;;;;;;25.81;38.42;99730.25;4479031;32;33884;-87
2022/06/06 08:37:52;;;;;;;3.05;1.60;;;;;;;25.77;39.13;99731.44;4478282;32;33990;-88
2022/06/06 08:40:53;;;;;;;3.40;2.05;;;;;;;25.45;40.14;99726.75;4475824;32;34687;-88
2022/06/06 08:43:30;;;;;;;2.67;1.67;;;;;;;25.62;40.43;99736.09;4439455;32;34494;-88
2022/06/06 08:46:16;;;;;;;2.70;1.30;;;;;;;25.61;40.20;99725.56;4427078;32;33561;-88
2022/06/06 08:49:02;;;;;;;2.50;1.35;;;;;;;25.38;40.43;99722.84;4430192;32;33905;-88
2022/06/06 08:51:49;;;;;;;3.35;2.10;;;;;;;25.61;39.48;99726.41;4431692;32;33557;-87
2022/06/06 08:54:32;;;;;;;3.47;1.60;;;;;;;25.70;38.30;99728.38;4427339;32;34281;-88
2022/06/06 08:57:14;;;;;;;2.90;1.52;;;;;;;25.63;39.59;99737.78;4428499;32;33544;-88
2022/06/06 09:00:07;;;;;;;3.83;1.90;;;;;;;25.72;37.82;99731.78;4426013;32;33440;-87
2022/06/06 09:03:30;;;;;;;3.25;1.67;;;;;;;25.58;38.56;99720.50;4432339;32;34391;-88
2022/06/06 09:06:45;;;;;;;4.25;1.87;;;;;;;25.78;37.42;99719.81;4428944;32;33034;-88
2022/06/06 09:09:39;;;;;;;2.78;1.73;;;;;;;25.45;40.87;99723.25;4423906;32;33428;-88
2022/06/06 09:12:36;;;;;;;3.28;1.50;;;;;;;25.69;40.51;99726.69;4430116;32;33822;-87
2022/06/06 09:15:48;;;;;;;3.00;1.90;;;;;;;25.58;41.33;99726.66;4429687;32;34520;-88
2022/06/06 09:19:08;;;;;;;2.87;1.58;;;;;;;25.66;41.22;99723.41;4428779;32;34007;-88
2022/06/06 09:21:59;;;;;;;4.27;2.17;;;;;;;25.71;39.13;99716.81;4462354;32;33159;-88
2022/06/06 09:25:20;;;;;;;2.65;1.50;;;;;;;25.70;38.92;99708.94;4460878;32;33226;-88
2022/06/06 09:28:22;;;;;;;2.80;1.52;;;;;;;26.11;38.93;99707.62;4474296;32;32959;-86
2022/06/06 09:31:24;;;;;;;2.15;1.45;;;;;;;26.48;37.21;99702.94;4462457;32;34183;-89
2022/06/06 09:34:24;;;;;;;2.58;1.75;;;;;;;26.08;35.15;99699.88;4471315;32;32351;-87
2022/06/06 09:37:05;;;;;;;3.12;1.50;;;;;;;26.25;36.46;99699.41;4462243;32;34438;-87
2022/06/06 09:39:37;;;;;;;3.55;1.67;;;;;;;26.14;35.32;99697.59;4466321;32;34363;-88
2022/06/06 09:42:16;;;;;;;3.47;1.80;;;;;;;26.27;37.70;99696.63;4478640;32;33254;-87
2022/06/06 09:45:21;;;;;;;1.77;1.05;;;;;;;26.23;37.80;99700.50;4479748;32;33854;-88
2022/06/06 09:48:19;;;;;;;2.33;1.65;;;;;;;25.90;36.06;99688.84;4477371;31;34028;-88
2022/06/06 09:51:09;;;;;;;2.80;1.45;;;;;;;26.45;36.14;99681.03;4477780;31;33554;-88
2022/06/06 10:00:11;;;;;;;2.87;1.55;;;;;;;26.84;35.75;99679.66;4479417;32;33604;-88
2022/06/06 10:03:27;;;;;;;2.65;1.75;;;;;;;26.97;34.49;99679.53;4479636;32;33340;-88
2022/06/06 10:06:24;;;;;;;3.12;1.50;;;;;;;26.94;35.42;99671.78;4477364;32;33312;-89
2022/06/06 10:09:35;;;;;;;3.20;1.50;;;;;;;27.38;34.75;99677.97;4472853;32;33756;-88
2022/06/06 10:12:38;;;;;;;2.97;1.33;;;;;;;27.21;33.35;99676.69;4415468;32;34375;-88
2022/06/06 10:15:35;;;;;;;2.70;1.55;;;;;;;27.50;32.50;99673.41;4415070;32;33845;-88
2022/06/06 10:18:46;;;;;;;2.28;1.23;;;;;;;27.58;31.87;99666.47;4393320;32;32076;-88
2022/06/06 10:21:45;;;;;;;2.22;1.40;;;;;;;27.66;33.04;99658.66;4413037;32;34622;-88
2022/06/06 10:24:28;;;;;;;2.78;1.35;;;;;;;27.40;32.77;99668.00;4415324;32;33781;-88
2022/06/06 10:27:13;;;;;;;1.83;1.30;;;;;;;27.65;33.35;99664.13;4415366;32;34358;-88
2022/06/06 10:30:11;;;;;;;1.52;1.10;;;;;;;27.69;32.63;99654.91;4420824;32;33924;-88
2022/06/06 10:33:18;;;;;;;1.60;0.98;;;;;;;27.72;29.83;99651.97;4418293;32;33699;-88
2022/06/06 10:36:02;;;;;;;1.73;1.20;;;;;;;27.75;30.34;99659.69;4409825;32;34738;-88
2022/06/06 10:38:51;;;;;;;2.37;1.58;;;;;;;27.73;29.61;99661.66;4420674;32;33689;-88
2022/06/06 10:41:53;;;;;;;2.10;1.23;;;;;;;27.93;31.06;99656.47;4415797;32;33964;-87
2022/06/06 10:45:17;;;;;;;2.10;1.30;;;;;;;27.89;28.87;99660.38;4420828;32;33427;-88
2022/06/06 10:48:08;;;;;;;3.45;1.52;;;;;;;27.23;30.05;99651.63;4379858;32;34645;-88
2022/06/06 10:53:51;;;;;;;2.15;1.30;;;;;;;28.34;28.37;99646.66;4444553;32;33677;-88
2022/06/06 10:56:40;;;;;;;2.35;1.27;;;;;;;28.13;28.81;99636.09;4445993;32;33767;-88
2022/06/06 10:59:39;;;;;;;3.12;1.40;;;;;;;28.44;27.77;99640.41;4445876;32;33763;-88
2022/06/06 11:02:40;;;;;;;1.65;0.98;;;;;;;28.06;27.26;99633.09;4440618;32;34948;-88
2022/06/06 11:05:32;;;;;;;2.65;1.30;;;;;;;28.19;26.15;99631.03;4429757;32;34059;-87
2022/06/06 11:08:21;;;;;;;2.30;1.30;;;;;;;28.80;26.35;99640.81;4430333;32;33451;-88
2022/06/06 11:11:26;;;;;;;1.90;1.10;;;;;;;28.62;27.09;99631.75;4430118;32;33762;-88
2022/06/06 11:14:02;;;;;;;1.77;1.17;;;;;;;29.39;26.25;99636.34;4427886;32;33616;-88
2022/06/06 11:17:15;;;;;;;1.52;0.98;;;;;;;29.83;25.77;99628.66;4432952;32;32824;-88
2022/06/06 11:20:17;;;;;;;2.85;1.33;;;;;;;29.24;28.26;99627.91;4430048;32;33478;-88
2022/06/06 11:22:52;;;;;;;0.90;0.80;;;;;;;29.67;26.89;99623.94;4436230;32;34433;-88
2022/06/06 11:25:22;;;;;;;2.28;1.10;;;;;;;30.48;26.17;99628.69;4463626;32;33925;-88
2022/06/06 11:28:11;;;;;;;2.58;1.20;;;;;;;30.62;26.37;99628.19;4469030;32;35258;-88
2022/06/06 11:31:11;;;;;;;1.23;1.00;;;;;;;31.19;25.31;99619.03;4469057;32;33556;-87
2022/06/06 11:34:12;;;;;;;3.40;1.55;;;;;;;31.22;25.53;99618.75;4448321;32;34192;-88
2022/06/06 11:37:14;;;;;;;2.15;1.00;;;;;;;31.48;24.79;99616.12;4479395;32;33927;-87
2022/06/06 11:40:31;;;;;;;2.08;1.17;;;;;;;31.49;24.77;99616.97;4467310;32;33295;-87
2022/06/06 11:43:19;;;;;;;1.98;1.10;;;;;;;30.82;25.50;99610.16;4420119;32;33735;-87
2022/06/06 11:46:21;;;;;;;2.87;1.20;;;;;;;30.29;26.47;99608.22;4419633;32;33908;-87
2022/06/06 11:49:28;;;;;;;1.33;1.00;;;;;;;30.55;26.36;99612.87;4414616;32;32742;-88
2022/06/06 11:52:29;;;;;;;2.20;1.00;;;;;;;30.51;26.10;99612.31;4426201;32;33469;-87
2022/06/06 11:55:34;;;;;;;2.15;1.33;;;;;;;30.65;25.41;99613.66;4428763;32;33703;-87
2022/06/06 11:58:29;;;;;;;2.83;1.30;;;;;;;30.75;25.28;99595.69;4420249;32;34661;-86
2022/06/06 12:01:15;;;;;;;1.80;1.10;;;;;;;31.19;25.27;99598.44;4429914;32;33848;-87
2022/06/06 12:04:31;;;;;;;2.42;1.15;;;;;;;30.71;24.50;99590.78;4429421;32;34002;-88
2022/06/06 12:07:46;;;;;;;1.27;1.05;;;;;;;30.85;24.59;99590.28;4384123;32;33555;-87
2022/06/06 12:10:20;;;;;;;1.35;0.90;;;;;;;30.30;25.68;99577.81;4353703;32;33969;-87
2022/06/06 12:13:28;;;;;;;2.37;1.30;;;;;;;30.74;24.90;99577.94;4353232;32;33283;-87
2022/06/06 12:16:18;;;;;;;3.65;1.20;;;;;;;30.98;25.54;99577.34;4353936;32;32877;-88
2022/06/06 12:19:01;;;;;;;2.47;1.17;;;;;;;31.10;24.86;99579.78;4360416;32;34547;-87
2022/06/06 12:22:14;;;;;;;1.40;0.88;;;;;;;31.24;24.24;99571.19;4413562;32;34648;-88
2022/06/06 12:24:59;;;;;;;1.75;1.20;;;;;;;31.32;24.49;99568.56;4408927;32;32154;-88
2022/06/06 12:27:42;;;;;;;1.85;1.10;;;;;;;31.21;25.61;99566.13;4414319;32;33932;-88
2022/06/06 12:30:31;;;;;;;3.00;1.40;;;;;;;30.89;25.21;99572.91;4414382;32;34127;-88
2022/06/06 12:33:03;;;;;;;2.12;1.05;;;;;;;31.48;23.75;99569.72;4414191;32;34140;-88
2022/06/06 12:35:42;;;;;;;1.98;1.12;;;;;;;31.38;24.09;99567.94;4418172;32;33821;-88
2022/06/06 12:38:21;;;;;;;1.25;0.90;;;;;;;32.29;24.74;99566.59;4419620;32;33406;-88
2022/06/06 12:41:02;;;;;;;1.55;0.80;;;;;;;32.41;22.75;99565.28;4423181;32;33872;-88
2022/06/06 12:43:42;;;;;;;1.73;0.80;;;;;;;32.45;22.52;99555.06;4444772;32;33853;-88
2022/06/06 12:46:27;;;;;;;2.62;1.17;;;;;;;32.48;23.59;99557.44;4461333;32;33944;-88
2022/06/06 12:49:05;;;;;;;2.17;1.20;;;;;;;32.73;23.39;99559.16;4478153;32;34425;-88
2022/06/06 12:51:53;;;;;;;1.98;1.23;;;;;;;32.24;22.63;99559.03;4471152;32;34504;-87
2022/06/06 12:55:26;;;;;;;1.33;0.85;;;;;;;31.11;24.59;99547.47;4462496;32;34784;-88
2022/06/06 12:57:28;;;;;;;3.08;1.75;;;;;;;31.13;23.99;99558.06;4462505;32;34513;-87
2022/06/06 13:00:05;;;;;;;2.40;1.27;;;;;;;31.22;24.11;99560.63;4467862;32;33400;-88
2022/06/06 13:02:47;;;;;;;1.92;1.08;;;;;;;30.92;25.09;99548.50;4476426;32;33466;-88